FW7374 Weather Reports


Display with metric or nautical units.
time (UTC)temp
F
wind
direction
speed
MPH
gust
MPH
rain 1hr
in
rain 24hr
in
rain mn
in
humidity
%
barometer
mb
20220525145140 67 173 1.0 5.0 0.00 0.02 0.00 80 1028.7
20220525135108 64 258 0.0 5.0 0.00 0.03 0.00 82 1028.9
20220525125103 61 355 1.0 4.0 0.00 0.03 0.00 83 1028.8
20220525115055 59 5 1.0 3.0 0.00 0.03 0.00 84 1028.4
20220525105057 56 79 0.0 2.0 0.00 0.03 0.00 95 1027.5
20220525095054 55 82 0.0 0.0 0.00 0.03 0.00 97 1027.2
20220525085052 54 78 0.0 0.0 0.00 0.05 0.00 96 1027.0
20220525075047 54 78 0.0 0.0 0.00 0.08 0.00 94 1026.1
20220525065042 55 78 0.0 0.0 0.00 0.13 0.00 92 1026.7
20220525055030 57 78 0.0 0.0 0.00 0.16 0.00 92 1026.8
20220525045022 58 78 0.0 0.0 0.00 0.20 0.00 93 1027.1
20220525034952 57 78 0.0 0.0 0.00 0.20 0.20 92 1026.9
20220525024952 59 78 0.0 0.0 0.00 0.21 0.20 89 1026.9
20220525014951 60 78 0.0 0.0 0.00 0.22 0.20 84 1026.5
20220525004946 61 78 0.0 3.0 0.00 0.22 0.20 80 1026.5
20220524234944 62 0 1.0 3.0 0.00 0.25 0.20 76 1026.1
20220524224945 63 161 0.0 4.0 0.00 0.25 0.20 78 1025.5
20220524214936 63 56 0.0 4.0 0.00 0.25 0.20 80 1025.2
20220524204926 62 155 0.0 3.0 0.00 0.25 0.20 84 1025.2
20220524194923 61 34 0.0 4.0 0.00 0.25 0.20 89 1025.3
20220524184920 61 14 0.0 5.0 0.00 0.25 0.20 91 1025.2
20220524174916 62 0 1.0 4.0 0.00 0.25 0.20 93 1024.9
20220524164918 61 13 1.0 4.0 0.02 0.25 0.20 94 1025.4
20220524154913 61 355 1.0 4.0 0.00 0.23 0.18 91 1025.5